createdAt,value
2018-12-04T00:00:55.534Z,4.03
2018-12-04T00:03:24.459Z,4.87
2018-12-04T00:05:30.589Z,6.13
2018-12-04T00:07:37.462Z,3.47
2018-12-04T00:09:43.557Z,2.80
2018-12-04T00:11:50.220Z,5.90
2018-12-04T00:13:56.349Z,5.43
2018-12-04T00:16:03.687Z,5.50
2018-12-04T00:18:11.224Z,5.33
2018-12-04T00:20:17.518Z,4.60
2018-12-04T00:22:24.442Z,2.80
2018-12-04T00:24:30.807Z,4.37
2018-12-04T00:26:37.166Z,2.37
2018-12-04T00:28:43.238Z,1.90
2018-12-04T00:30:49.347Z,2.50
2018-12-04T00:33:03.191Z,7.87
2018-12-04T00:35:10.620Z,1.90
2018-12-04T00:37:17.637Z,3.90
2018-12-04T00:39:24.373Z,3.77
2018-12-04T00:41:30.517Z,6.50
2018-12-04T00:43:36.620Z,4.10
2018-12-04T00:45:42.934Z,5.47
2018-12-04T00:47:49.295Z,4.33
2018-12-04T00:49:55.580Z,5.33
2018-12-04T00:52:01.653Z,7.30
2018-12-04T00:54:08.374Z,2.20
2018-12-04T00:56:14.430Z,3.30
2018-12-04T00:58:20.589Z,4.00
2018-12-04T01:00:26.978Z,4.10
2018-12-04T01:02:33.634Z,4.90
2018-12-04T01:04:39.799Z,5.77
2018-12-04T01:06:46.174Z,5.07
2018-12-04T01:08:52.462Z,2.93
2018-12-04T01:10:58.921Z,6.37
2018-12-04T01:13:05.294Z,6.40
2018-12-04T01:15:11.498Z,3.93
2018-12-04T01:17:18.056Z,6.17
2018-12-04T01:19:24.270Z,9.37
2018-12-04T01:21:30.398Z,8.03
2018-12-04T01:23:37.046Z,7.50
2018-12-04T01:25:43.216Z,5.50
2018-12-04T01:27:49.366Z,4.20
2018-12-04T01:29:55.638Z,6.97
2018-12-04T01:32:05.592Z,3.30
2018-12-04T01:34:12.470Z,2.87
2018-12-04T01:36:18.690Z,5.10
2018-12-04T01:38:47.593Z,4.30
2018-12-04T01:41:19.155Z,5.73
2018-12-04T01:43:25.323Z,3.03
2018-12-04T01:45:31.596Z,3.50
2018-12-04T01:47:37.833Z,3.50
2018-12-04T01:49:44.079Z,5.47
2018-12-04T01:51:50.162Z,3.70
2018-12-04T01:53:56.326Z,7.73
2018-12-04T01:56:03.619Z,6.17
2018-12-04T01:58:09.742Z,2.90
2018-12-04T02:00:16.030Z,6.40
2018-12-04T02:02:22.280Z,7.00
2018-12-04T02:04:29.946Z,4.90
2018-12-04T02:06:37.100Z,6.00
2018-12-04T02:08:49.598Z,6.47
2018-12-04T02:10:56.603Z,3.97
2018-12-04T02:13:03.580Z,7.70
2018-12-04T02:15:10.047Z,6.07
2018-12-04T02:19:32.730Z,4.40
2018-12-04T02:21:39.937Z,6.73
2018-12-04T02:23:47.378Z,11.23
2018-12-04T02:25:53.622Z,4.10
2018-12-04T02:27:59.914Z,3.67
2018-12-04T02:30:06.122Z,5.70
2018-12-04T02:32:12.374Z,4.97
2018-12-04T02:34:19.186Z,7.40
2018-12-04T02:36:25.246Z,3.40
2018-12-04T02:38:31.284Z,4.40
2018-12-04T02:40:37.372Z,2.33
2018-12-04T02:42:43.408Z,5.00
2018-12-04T02:44:50.473Z,5.60
2018-12-04T02:46:56.574Z,4.27
2018-12-04T02:49:02.859Z,4.67
2018-12-04T02:51:08.981Z,2.50
2018-12-04T02:53:15.068Z,6.27
2018-12-04T02:55:21.124Z,4.80
2018-12-04T02:57:27.197Z,4.67
2018-12-04T02:59:33.334Z,4.53
2018-12-04T03:01:39.498Z,5.73
2018-12-04T03:03:46.251Z,5.93
2018-12-04T03:05:52.526Z,5.07
2018-12-04T03:07:58.909Z,10.30
2018-12-04T03:10:27.391Z,7.57
2018-12-04T03:12:56.289Z,4.60
2018-12-04T03:15:03.441Z,4.87
2018-12-04T03:17:09.613Z,6.67
2018-12-04T03:19:15.656Z,5.50
2018-12-04T03:21:21.776Z,6.20
2018-12-04T03:23:27.846Z,4.73
2018-12-04T03:25:34.395Z,2.93
2018-12-04T03:27:40.574Z,6.90
2018-12-04T03:29:47.041Z,2.20
2018-12-04T03:31:53.330Z,4.37
2018-12-04T03:33:59.824Z,4.60
2018-12-04T03:36:06.132Z,6.27
2018-12-04T03:38:13.329Z,5.87
2018-12-04T03:40:19.706Z,3.00
2018-12-04T03:42:25.845Z,5.03
2018-12-04T03:44:31.954Z,2.97
2018-12-04T03:46:38.002Z,3.40
2018-12-04T03:48:44.159Z,3.50
2018-12-04T03:50:50.379Z,4.37
2018-12-04T03:52:57.282Z,4.37
2018-12-04T03:55:04.144Z,4.60
2018-12-04T03:57:10.280Z,10.10
2018-12-04T03:59:16.462Z,4.77
2018-12-04T04:01:24.557Z,3.90
2018-12-04T04:03:30.709Z,3.40
2018-12-04T04:05:36.898Z,6.67
2018-12-04T04:07:43.326Z,6.57
2018-12-04T04:09:50.090Z,5.40
2018-12-04T04:11:56.375Z,5.07
2018-12-04T04:14:02.605Z,11.40
2018-12-04T04:16:08.689Z,8.87
2018-12-04T04:18:14.830Z,7.63
2018-12-04T04:20:20.910Z,6.17
2018-12-04T04:22:27.074Z,4.00
2018-12-04T04:24:33.218Z,3.23
2018-12-04T04:26:39.724Z,3.33
2018-12-04T04:28:46.435Z,6.87
2018-12-04T04:30:52.494Z,3.87
2018-12-04T04:32:58.610Z,6.10
2018-12-04T04:35:06.898Z,4.67
2018-12-04T04:37:12.971Z,2.50
2018-12-04T04:39:19.737Z,2.63
2018-12-04T04:41:25.823Z,9.57
2018-12-04T04:43:31.955Z,1.77
2018-12-04T04:45:38.049Z,2.53
2018-12-04T04:47:44.183Z,2.60
2018-12-04T04:49:50.408Z,5.37
2018-12-04T04:51:56.720Z,4.10
2018-12-04T04:54:04.876Z,1.50
2018-12-04T04:56:11.029Z,3.03
2018-12-04T04:58:17.142Z,2.80
2018-12-04T05:00:47.030Z,3.30
2018-12-04T05:03:16.285Z,5.17
2018-12-04T05:05:22.620Z,3.13
2018-12-04T05:07:28.742Z,2.63
2018-12-04T05:09:35.059Z,2.17
2018-12-04T05:11:41.333Z,1.93
2018-12-04T05:13:47.625Z,2.73
2018-12-04T05:15:53.710Z,3.00
2018-12-04T05:17:59.895Z,2.23
2018-12-04T05:20:08.542Z,5.37
2018-12-04T05:22:14.721Z,4.43
2018-12-04T05:24:43.717Z,3.90
2018-12-04T05:27:12.024Z,2.70
2018-12-04T05:29:18.306Z,4.47
2018-12-04T05:31:24.754Z,2.07
2018-12-04T05:33:30.854Z,1.70
2018-12-04T05:35:37.115Z,4.57
2018-12-04T05:37:43.173Z,6.00
2018-12-04T05:39:49.269Z,2.53
2018-12-04T05:41:55.451Z,2.73
2018-12-04T05:44:01.932Z,2.93
2018-12-04T05:46:08.208Z,5.53
2018-12-04T05:48:14.300Z,10.77
2018-12-04T05:50:20.384Z,4.67
2018-12-04T05:52:26.786Z,3.83
2018-12-04T05:54:32.969Z,4.33
2018-12-04T05:56:39.279Z,3.07
2018-12-04T05:58:45.546Z,2.47
2018-12-04T06:03:11.752Z,1.93
2018-12-04T06:05:17.908Z,2.80
2018-12-04T06:07:24.738Z,2.73
2018-12-04T06:09:31.470Z,5.43
2018-12-04T06:11:38.000Z,7.13
2018-12-04T06:13:44.321Z,5.43
2018-12-04T06:15:50.472Z,3.07
2018-12-04T06:17:56.909Z,4.07
2018-12-04T06:20:03.214Z,2.70
2018-12-04T06:22:09.559Z,3.23
2018-12-04T06:24:38.154Z,2.47
2018-12-04T06:27:07.019Z,1.77
2018-12-04T06:29:13.181Z,1.90
2018-12-04T06:31:19.265Z,3.37
2018-12-04T06:33:25.352Z,2.47
2018-12-04T06:37:49.074Z,2.23
2018-12-04T06:39:55.518Z,3.40
2018-12-04T06:42:01.787Z,2.43
2018-12-04T06:44:07.891Z,3.50
2018-12-04T06:46:14.427Z,4.10
2018-12-04T06:48:20.590Z,3.00
2018-12-04T06:50:26.806Z,3.83
2018-12-04T06:52:33.391Z,2.33
2018-12-04T06:54:39.521Z,1.87
2018-12-04T06:56:47.486Z,6.50
2018-12-04T06:58:54.455Z,3.93
2018-12-04T07:01:01.316Z,4.73
2018-12-04T07:03:07.531Z,2.90
2018-12-04T07:05:13.776Z,2.83
2018-12-04T07:07:20.168Z,3.30
2018-12-04T07:09:26.389Z,1.93
2018-12-04T07:11:33.162Z,3.03
2018-12-04T07:13:39.516Z,3.73
2018-12-04T07:15:45.809Z,3.27
2018-12-04T07:17:52.158Z,2.33
2018-12-04T07:19:58.834Z,5.00
2018-12-04T07:22:05.095Z,3.57
2018-12-04T07:24:33.968Z,3.30
2018-12-04T07:27:03.161Z,3.20
2018-12-04T07:29:09.542Z,2.50
2018-12-04T07:31:16.508Z,2.50
2018-12-04T07:33:22.736Z,2.63
2018-12-04T07:35:28.963Z,4.00
2018-12-04T07:37:35.260Z,2.70
2018-12-04T07:39:41.414Z,2.23
2018-12-04T07:41:47.471Z,3.23
2018-12-04T07:43:53.593Z,2.10
2018-12-04T07:45:59.841Z,4.17
2018-12-04T07:48:06.362Z,1.53
2018-12-04T07:50:12.488Z,6.90
2018-12-04T07:52:18.633Z,2.60
2018-12-04T07:54:24.878Z,5.90
2018-12-04T07:56:31.034Z,3.63
2018-12-04T07:58:37.223Z,3.30
2018-12-04T08:00:43.386Z,4.30
2018-12-04T08:02:49.683Z,9.40
2018-12-04T08:04:55.869Z,3.80
2018-12-04T08:07:02.159Z,4.70
2018-12-04T08:09:09.699Z,1.97
2018-12-04T08:11:15.736Z,4.00
2018-12-04T08:13:22.090Z,4.70
2018-12-04T08:15:28.277Z,6.47
2018-12-04T08:17:34.754Z,2.63
2018-12-04T08:19:41.004Z,4.80
2018-12-04T08:21:47.816Z,3.10
2018-12-04T08:24:16.810Z,3.23
2018-12-04T08:26:44.977Z,2.93
2018-12-04T08:28:51.316Z,6.43
2018-12-04T08:30:57.487Z,2.90
2018-12-04T08:33:04.098Z,3.07
2018-12-04T08:35:11.502Z,4.40
2018-12-04T08:37:17.589Z,3.73
2018-12-04T08:39:45.779Z,3.27
2018-12-04T08:42:14.269Z,2.50
2018-12-04T08:44:20.618Z,2.53
2018-12-04T08:46:27.557Z,2.70
2018-12-04T08:48:33.757Z,3.47
2018-12-04T08:50:39.892Z,6.60
2018-12-04T08:52:46.024Z,3.10
2018-12-04T08:54:52.137Z,3.77
2018-12-04T08:56:58.239Z,2.67
2018-12-04T08:59:04.420Z,2.43
2018-12-04T09:01:10.640Z,3.50
2018-12-04T09:03:19.088Z,6.10
2018-12-04T09:05:26.199Z,2.27
2018-12-04T09:07:32.529Z,1.90
2018-12-04T09:09:38.864Z,4.50
2018-12-04T09:11:44.923Z,4.43
2018-12-04T09:13:51.063Z,3.60
2018-12-04T09:15:57.403Z,2.50
2018-12-04T09:18:03.667Z,2.57
2018-12-04T09:20:09.936Z,3.77
2018-12-04T09:22:16.288Z,6.70
2018-12-04T09:24:23.483Z,3.50
2018-12-04T09:26:29.746Z,2.33
2018-12-04T09:28:36.140Z,2.70
2018-12-04T09:30:42.829Z,3.43
2018-12-04T09:32:49.119Z,5.13
2018-12-04T09:34:55.375Z,6.70
2018-12-04T09:37:01.608Z,2.43
2018-12-04T09:39:30.256Z,3.97
2018-12-04T09:41:59.327Z,2.70
2018-12-04T09:44:05.554Z,8.17
2018-12-04T09:46:12.126Z,3.13
2018-12-04T09:48:18.293Z,2.70
2018-12-04T09:50:24.530Z,4.23
2018-12-04T09:52:31.035Z,3.60
2018-12-04T09:54:37.106Z,2.27
2018-12-04T09:56:43.347Z,3.37
2018-12-04T09:58:49.466Z,2.10
2018-12-04T10:01:18.602Z,6.13
2018-12-04T10:03:47.647Z,5.03
2018-12-04T10:05:53.823Z,3.03
2018-12-04T10:08:00.022Z,2.37
2018-12-04T10:10:07.951Z,4.13
2018-12-04T10:12:14.378Z,3.47
2018-12-04T10:14:21.281Z,3.73
2018-12-04T10:16:27.476Z,4.07
2018-12-04T10:18:33.842Z,2.97
2018-12-04T10:20:40.113Z,6.07
2018-12-04T10:22:46.590Z,3.40
2018-12-04T10:24:52.729Z,2.47
2018-12-04T10:26:59.265Z,7.00
2018-12-04T10:29:05.637Z,4.93
2018-12-04T10:31:12.118Z,2.50
2018-12-04T10:33:18.711Z,3.27
2018-12-04T10:35:25.851Z,4.50
2018-12-04T10:37:34.422Z,5.00
2018-12-04T10:39:40.699Z,4.30
2018-12-04T10:41:47.088Z,3.60
2018-12-04T10:43:53.994Z,5.03
2018-12-04T10:46:00.678Z,2.30
2018-12-04T10:48:06.883Z,2.80
2018-12-04T10:50:13.435Z,4.03
2018-12-04T10:52:19.610Z,3.40
2018-12-04T10:54:26.018Z,3.30
2018-12-04T10:56:32.098Z,5.33
2018-12-04T10:58:38.238Z,3.63
2018-12-04T11:00:49.592Z,2.67
2018-12-04T11:03:22.125Z,2.77
2018-12-04T11:05:51.242Z,3.97
2018-12-04T11:07:57.596Z,3.00
2018-12-04T11:10:04.245Z,2.60
2018-12-04T11:12:12.494Z,2.70
2018-12-04T11:14:18.828Z,2.90
2018-12-04T11:16:24.950Z,5.00
2018-12-04T11:18:31.367Z,2.70
2018-12-04T11:20:37.521Z,4.30
2018-12-04T11:22:43.817Z,4.27
2018-12-04T11:24:49.950Z,5.30
2018-12-04T11:26:56.175Z,3.10
2018-12-04T11:29:25.013Z,3.23
2018-12-04T11:31:54.452Z,2.13
2018-12-04T11:34:01.298Z,2.43
2018-12-04T11:36:07.493Z,4.40
2018-12-04T11:38:14.698Z,1.80
2018-12-04T11:40:21.495Z,4.27
2018-12-04T11:42:27.751Z,2.97
2018-12-04T11:44:33.964Z,3.10
2018-12-04T11:46:40.245Z,3.40
2018-12-04T11:48:46.308Z,5.80
2018-12-04T11:50:53.373Z,2.53
2018-12-04T11:53:00.084Z,3.63
2018-12-04T11:55:06.675Z,2.27
2018-12-04T11:57:12.841Z,4.43
2018-12-04T11:59:19.085Z,2.10
2018-12-04T12:01:30.654Z,10.87
2018-12-04T12:03:37.494Z,15.20
2018-12-04T12:05:43.843Z,11.33
2018-12-04T12:07:52.032Z,6.50
2018-12-04T12:09:59.156Z,6.10
2018-12-04T12:12:06.055Z,1.80
2018-12-04T12:14:12.202Z,2.07
2018-12-04T12:16:18.609Z,3.03
2018-12-04T12:18:24.814Z,2.73
2018-12-04T12:20:31.560Z,4.87
2018-12-04T12:22:38.023Z,5.00
2018-12-04T12:25:18.655Z,3.57
2018-12-04T12:27:48.003Z,4.40
2018-12-04T12:29:54.655Z,3.87
2018-12-04T12:32:01.460Z,4.03
2018-12-04T12:34:07.753Z,2.30
2018-12-04T12:36:14.143Z,2.50
2018-12-04T12:38:20.696Z,3.20
2018-12-04T12:40:26.864Z,2.47
2018-12-04T12:42:33.019Z,2.63
2018-12-04T12:44:39.603Z,3.00
2018-12-04T12:46:45.727Z,5.00
2018-12-04T12:48:52.007Z,3.80
2018-12-04T12:50:58.235Z,2.03
2018-12-04T12:53:05.170Z,12.03
2018-12-04T12:55:11.713Z,4.03
2018-12-04T12:57:18.697Z,3.30
2018-12-04T12:59:24.787Z,4.90
2018-12-04T13:01:31.004Z,4.20
2018-12-04T13:03:37.122Z,4.23
2018-12-04T13:05:43.233Z,3.40
2018-12-04T13:07:49.722Z,4.40
2018-12-04T13:09:56.008Z,3.87
2018-12-04T13:12:02.250Z,14.80
2018-12-04T13:14:08.578Z,3.90
2018-12-04T13:16:14.719Z,7.80
2018-12-04T13:18:20.835Z,2.47
2018-12-04T13:20:27.054Z,2.40
2018-12-04T13:22:33.887Z,3.20
2018-12-04T13:24:40.509Z,4.27
2018-12-04T13:26:46.951Z,5.60
2018-12-04T13:28:53.775Z,4.93
2018-12-04T13:31:00.003Z,8.40
2018-12-04T13:33:29.455Z,9.70
2018-12-04T13:35:58.663Z,8.90
2018-12-04T13:38:04.853Z,5.07
2018-12-04T13:40:11.179Z,6.43
2018-12-04T13:42:17.410Z,5.40
2018-12-04T13:44:23.624Z,5.00
2018-12-04T13:46:30.083Z,3.60
2018-12-04T13:48:36.386Z,2.50
2018-12-04T13:50:42.604Z,4.23
2018-12-04T13:52:48.911Z,9.97
2018-12-04T13:54:55.188Z,5.47
2018-12-04T13:57:01.391Z,4.07
2018-12-04T13:59:07.703Z,5.53
2018-12-04T14:01:36.291Z,6.20
2018-12-04T14:04:05.528Z,5.50
2018-12-04T14:06:33.822Z,4.00
2018-12-04T14:09:05.713Z,7.10
2018-12-04T14:11:12.015Z,6.37
2018-12-04T14:13:18.170Z,7.97
2018-12-04T14:15:24.337Z,10.10
2018-12-04T14:17:30.633Z,9.13
2018-12-04T14:19:36.865Z,4.83
2018-12-04T14:21:43.190Z,4.03
2018-12-04T14:24:11.430Z,3.50
2018-12-04T14:26:39.574Z,2.53
2018-12-04T14:31:03.578Z,7.23
2018-12-04T14:33:09.887Z,2.60
2018-12-04T14:35:16.194Z,2.53
2018-12-04T14:37:22.641Z,3.30
2018-12-04T14:39:30.280Z,3.77
2018-12-04T14:41:36.955Z,4.77
2018-12-04T14:43:43.211Z,3.30
2018-12-04T14:45:49.568Z,3.70
2018-12-04T14:47:56.456Z,4.40
2018-12-04T14:50:02.622Z,6.30
2018-12-04T14:52:08.858Z,10.30
2018-12-04T14:54:15.788Z,5.77
2018-12-04T14:56:21.885Z,2.67
2018-12-04T14:58:28.092Z,4.80
2018-12-04T15:00:35.473Z,4.40
2018-12-04T15:02:41.737Z,3.30
2018-12-04T15:04:55.473Z,6.20
2018-12-04T15:07:09.351Z,12.23
2018-12-04T15:09:15.708Z,12.07
2018-12-04T15:11:21.944Z,6.13
2018-12-04T15:13:28.400Z,10.47
2018-12-04T15:15:34.731Z,14.23
2018-12-04T15:17:40.928Z,8.80
2018-12-04T15:19:47.554Z,9.93
2018-12-04T15:21:53.800Z,14.00
2018-12-04T15:24:22.876Z,12.33
2018-12-04T15:26:52.107Z,17.47
2018-12-04T15:28:58.791Z,12.83
2018-12-04T15:31:05.079Z,16.70
2018-12-04T15:33:11.323Z,16.23
2018-12-04T15:35:17.599Z,21.00
2018-12-04T15:37:24.855Z,12.53
2018-12-04T15:39:32.141Z,6.50
2018-12-04T15:41:38.396Z,6.33
2018-12-04T15:43:45.551Z,6.90
2018-12-04T15:45:51.828Z,13.00
2018-12-04T15:47:58.264Z,6.50
2018-12-04T15:50:05.462Z,7.07
2018-12-04T15:52:11.805Z,7.60
2018-12-04T15:54:18.404Z,5.50
2018-12-04T15:56:24.689Z,5.77
2018-12-04T15:58:30.824Z,6.80
2018-12-04T16:00:37.015Z,7.17
2018-12-04T16:02:43.166Z,7.80
2018-12-04T16:04:49.441Z,9.17
2018-12-04T16:06:56.039Z,9.80
2018-12-04T16:09:02.237Z,8.53
2018-12-04T16:11:08.427Z,12.53
2018-12-04T16:13:50.754Z,6.27
2018-12-04T16:16:19.217Z,9.27
2018-12-04T16:18:25.535Z,13.77
2018-12-04T16:20:31.912Z,10.97
2018-12-04T16:22:38.218Z,14.10
2018-12-04T16:24:44.378Z,6.00
2018-12-04T16:26:50.639Z,10.87
2018-12-04T16:28:57.401Z,8.43
2018-12-04T16:31:03.935Z,8.70
2018-12-04T16:33:10.157Z,6.40
2018-12-04T16:35:16.375Z,5.60
2018-12-04T16:37:22.703Z,8.10
2018-12-04T16:39:29.039Z,7.43
2018-12-04T16:41:35.603Z,7.07
2018-12-04T16:43:41.701Z,6.43
2018-12-04T16:45:48.059Z,6.37
2018-12-04T16:47:54.432Z,9.67
2018-12-04T16:50:00.784Z,9.07
2018-12-04T16:52:07.161Z,6.47
2018-12-04T16:54:13.485Z,4.63
2018-12-04T16:56:19.734Z,4.07
2018-12-04T16:58:25.881Z,4.03
2018-12-04T17:00:32.063Z,4.70
2018-12-04T17:02:38.926Z,3.17
2018-12-04T17:04:45.080Z,2.60
2018-12-04T17:06:51.258Z,4.87
2018-12-04T17:08:57.403Z,12.20
2018-12-04T17:11:03.626Z,11.47
2018-12-04T17:13:09.753Z,9.97
2018-12-04T17:15:15.987Z,8.77
2018-12-04T17:17:22.303Z,16.80
2018-12-04T17:19:28.958Z,11.20
2018-12-04T17:21:35.230Z,9.80
2018-12-04T17:23:41.545Z,7.80
2018-12-04T17:25:47.615Z,7.80
2018-12-04T17:27:53.953Z,6.53
2018-12-04T17:30:00.373Z,6.30
2018-12-04T17:32:06.618Z,8.47
2018-12-04T17:34:12.836Z,7.83
2018-12-04T17:36:19.357Z,7.17
2018-12-04T17:38:25.927Z,5.90
2018-12-04T17:41:00.735Z,7.57
2018-12-04T17:43:29.215Z,8.83
2018-12-04T17:45:35.623Z,10.57
2018-12-04T17:47:42.056Z,13.70
2018-12-04T17:49:48.229Z,9.97
2018-12-04T17:51:54.457Z,12.30
2018-12-04T17:54:00.700Z,13.60
2018-12-04T17:56:09.139Z,14.67
2018-12-04T17:58:15.271Z,13.67
2018-12-04T18:00:21.665Z,11.33
2018-12-04T18:02:30.064Z,9.90
2018-12-04T18:04:37.324Z,8.67
2018-12-04T18:06:45.466Z,9.50
2018-12-04T18:08:51.939Z,7.70
2018-12-04T18:11:00.260Z,7.70
2018-12-04T18:13:06.606Z,9.20
2018-12-04T18:15:16.521Z,9.00
2018-12-04T18:17:22.902Z,12.97
2018-12-04T18:19:29.580Z,9.00
2018-12-04T18:21:35.836Z,11.03
2018-12-04T18:24:04.067Z,9.17
2018-12-04T18:26:32.383Z,9.43
2018-12-04T18:28:38.760Z,12.10
2018-12-04T18:30:45.184Z,10.23
2018-12-04T18:32:51.491Z,6.70
2018-12-04T18:34:57.706Z,9.60
2018-12-04T18:37:04.018Z,4.10
2018-12-04T18:39:10.364Z,5.23
2018-12-04T18:41:16.773Z,6.47
2018-12-04T18:43:23.169Z,5.97
2018-12-04T18:45:29.543Z,8.43
2018-12-04T18:47:36.067Z,8.47
2018-12-04T18:49:42.566Z,8.60
2018-12-04T18:51:50.487Z,8.00
2018-12-04T18:53:56.829Z,8.10
2018-12-04T18:56:03.062Z,6.63
2018-12-04T18:58:09.489Z,7.10
2018-12-04T19:00:16.552Z,8.70
2018-12-04T19:02:22.892Z,6.87
2018-12-04T19:04:30.601Z,11.33
2018-12-04T19:06:37.393Z,9.93
2018-12-04T19:08:48.409Z,11.67
2018-12-04T19:10:56.314Z,10.17
2018-12-04T19:13:02.650Z,9.87
2018-12-04T19:15:10.145Z,11.10
2018-12-04T19:17:16.460Z,11.30
2018-12-04T19:19:22.723Z,17.43
2018-12-04T19:21:29.224Z,18.30
2018-12-04T19:23:43.933Z,22.17
2018-12-04T19:26:12.920Z,13.10
2018-12-04T19:28:19.247Z,16.87
2018-12-04T19:30:25.589Z,10.90
2018-12-04T19:32:31.886Z,10.37
2018-12-04T19:34:38.853Z,8.17
2018-12-04T19:36:45.360Z,3.50
2018-12-04T19:38:51.677Z,3.20
2018-12-04T19:40:57.888Z,3.63
2018-12-04T19:43:04.266Z,4.93
2018-12-04T19:45:10.580Z,4.50
2018-12-04T19:47:16.868Z,6.50
2018-12-04T19:49:46.080Z,4.77
2018-12-04T19:52:15.140Z,6.10
2018-12-04T19:54:21.716Z,4.83
2018-12-04T19:56:27.977Z,9.07
2018-12-04T19:58:34.319Z,8.87
2018-12-04T20:00:41.071Z,10.57
2018-12-04T20:02:47.423Z,10.93
2018-12-04T20:04:59.269Z,9.27
2018-12-04T20:07:05.775Z,11.77
2018-12-04T20:09:11.975Z,15.43
2018-12-04T20:11:18.310Z,15.83
2018-12-04T20:13:24.797Z,18.40
2018-12-04T20:15:31.534Z,12.43
2018-12-04T20:17:37.735Z,16.10
2018-12-04T20:19:43.935Z,11.20
2018-12-04T20:21:50.241Z,12.43
2018-12-04T20:23:56.615Z,7.80
2018-12-04T20:26:02.862Z,4.70
2018-12-04T20:28:09.109Z,6.20
2018-12-04T20:30:15.479Z,5.63
2018-12-04T20:32:21.897Z,3.30
2018-12-04T20:34:28.283Z,4.57
2018-12-04T20:36:34.703Z,4.00
2018-12-04T20:38:41.286Z,5.33
2018-12-04T20:40:47.589Z,16.73
2018-12-04T20:42:54.071Z,6.23
2018-12-04T20:45:00.345Z,13.20
2018-12-04T20:47:06.522Z,14.33
2018-12-04T20:49:13.367Z,10.10
2018-12-04T20:51:19.709Z,7.80
2018-12-04T20:53:25.899Z,9.50
2018-12-04T20:55:32.096Z,8.03
2018-12-04T20:57:38.289Z,7.57
2018-12-04T20:59:44.606Z,9.43
2018-12-04T21:01:51.040Z,9.07
2018-12-04T21:03:57.273Z,11.43
2018-12-04T21:06:03.629Z,20.27
2018-12-04T21:08:11.047Z,28.60
2018-12-04T21:10:17.267Z,34.73
2018-12-04T21:12:23.523Z,26.40
2018-12-04T21:14:29.797Z,19.87
2018-12-04T21:16:36.057Z,17.77
2018-12-04T21:18:42.311Z,18.43
2018-12-04T21:20:48.668Z,18.00
2018-12-04T21:22:55.082Z,17.47
2018-12-04T21:25:02.030Z,16.23
2018-12-04T21:27:12.425Z,14.93
2018-12-04T21:29:23.818Z,16.00
2018-12-04T21:31:35.342Z,15.67
2018-12-04T21:36:57.829Z,10.30
2018-12-04T21:39:09.573Z,7.90
2018-12-04T21:41:21.182Z,8.90
2018-12-04T21:43:33.056Z,6.97
2018-12-04T21:45:44.269Z,10.37
2018-12-04T21:50:17.256Z,8.47
2018-12-04T21:52:23.466Z,10.13
2018-12-04T21:54:29.678Z,13.50
2018-12-04T21:56:35.790Z,14.60
2018-12-04T21:58:42.241Z,15.00
2018-12-04T22:00:49.216Z,13.57
2018-12-04T22:02:55.496Z,17.97
2018-12-04T22:05:01.656Z,12.80
2018-12-04T22:07:08.890Z,12.97
2018-12-04T22:09:15.135Z,9.40
2018-12-04T22:11:21.240Z,11.10
2018-12-04T22:13:27.432Z,22.63
2018-12-04T22:15:33.785Z,26.33
2018-12-04T22:17:41.202Z,20.80
2018-12-04T22:19:47.511Z,19.93
2018-12-04T22:21:54.218Z,16.00
2018-12-04T22:24:00.342Z,17.53
2018-12-04T22:26:07.957Z,13.10
2018-12-04T22:28:14.123Z,11.60
2018-12-04T22:30:21.195Z,13.00
2018-12-04T22:32:27.312Z,12.13
2018-12-04T22:34:33.609Z,12.90
2018-12-04T22:36:40.014Z,13.37
2018-12-04T22:38:46.266Z,13.57
2018-12-04T22:40:52.375Z,13.90
2018-12-04T22:42:58.503Z,11.80
2018-12-04T22:45:10.370Z,12.07
2018-12-04T22:47:16.503Z,16.77
2018-12-04T22:49:22.661Z,13.30
2018-12-04T22:51:28.818Z,10.70
2018-12-04T22:53:36.790Z,14.17
2018-12-04T22:55:43.218Z,12.93
2018-12-04T22:57:49.319Z,13.77
2018-12-04T22:59:55.410Z,12.20
2018-12-04T23:02:01.832Z,13.53
2018-12-04T23:06:28.213Z,10.60
2018-12-04T23:08:35.093Z,11.37
2018-12-04T23:10:41.489Z,13.87
2018-12-04T23:12:47.749Z,17.83
2018-12-04T23:14:54.079Z,12.90
2018-12-04T23:17:00.210Z,10.83
2018-12-04T23:19:06.750Z,13.70
2018-12-04T23:21:13.041Z,16.60
2018-12-04T23:23:20.227Z,11.60
2018-12-04T23:25:26.568Z,13.80
2018-12-04T23:27:34.401Z,15.40
2018-12-04T23:29:41.277Z,11.37
2018-12-04T23:31:47.517Z,13.27
2018-12-04T23:33:55.532Z,16.67
2018-12-04T23:36:02.502Z,18.60
2018-12-04T23:38:08.561Z,15.70
2018-12-04T23:40:15.505Z,16.70
2018-12-04T23:42:21.796Z,17.20
2018-12-04T23:44:27.947Z,16.60
2018-12-04T23:46:34.078Z,15.70
2018-12-04T23:48:40.798Z,16.20
2018-12-04T23:50:47.142Z,14.97
2018-12-04T23:52:53.332Z,14.67
2018-12-04T23:54:59.591Z,13.40
2018-12-04T23:57:05.804Z,16.70
2018-12-04T23:59:11.984Z,16.60
